createdAt,value
2019-04-29T00:01:34.838Z,11.97
2019-04-29T00:04:46.790Z,12.87
2019-04-29T00:07:15.196Z,12.13
2019-04-29T00:09:43.595Z,11.13
2019-04-29T00:12:12.839Z,13.69
2019-04-29T00:14:43.030Z,12.03
2019-04-29T00:17:18.803Z,14.03
2019-04-29T00:19:54.522Z,13.67
2019-04-29T00:22:22.998Z,13.13
2019-04-29T00:24:51.398Z,11.17
2019-04-29T00:27:19.821Z,10.60
2019-04-29T00:29:48.211Z,10.40
2019-04-29T00:32:16.683Z,11.23
2019-04-29T00:34:45.086Z,11.57
2019-04-29T00:37:31.346Z,11.60
2019-04-29T00:40:07.311Z,11.37
2019-04-29T00:42:43.090Z,10.13
2019-04-29T00:45:11.640Z,11.47
2019-04-29T00:47:40.035Z,9.70
2019-04-29T00:50:08.576Z,10.87
2019-04-29T00:52:37.038Z,9.63
2019-04-29T00:55:10.288Z,9.97
2019-04-29T00:57:38.687Z,9.10
2019-04-29T01:00:09.610Z,10.17
2019-04-29T01:02:38.006Z,9.03
2019-04-29T01:05:07.038Z,10.63
2019-04-29T01:07:35.457Z,10.43
2019-04-29T01:10:05.659Z,8.67
2019-04-29T01:12:34.122Z,9.20
2019-04-29T01:15:02.518Z,8.73
2019-04-29T01:17:30.910Z,9.73
2019-04-29T01:19:59.306Z,9.13
2019-04-29T01:22:28.073Z,9.57
2019-04-29T01:24:56.470Z,6.97
2019-04-29T01:27:26.507Z,8.13
2019-04-29T01:29:54.982Z,8.07
2019-04-29T01:32:23.446Z,9.70
2019-04-29T01:34:53.719Z,8.40
2019-04-29T01:37:23.835Z,8.47
2019-04-29T01:40:05.751Z,8.83
2019-04-29T01:42:35.795Z,9.60
2019-04-29T01:45:04.498Z,8.60
2019-04-29T01:47:32.899Z,8.67
2019-04-29T01:50:01.299Z,10.13
2019-04-29T01:52:29.691Z,9.07
2019-04-29T01:54:58.086Z,9.97
2019-04-29T01:57:26.490Z,8.47
2019-04-29T01:59:54.882Z,8.70
2019-04-29T02:02:23.283Z,8.53
2019-04-29T02:04:51.938Z,8.63
2019-04-29T02:07:20.339Z,11.63
2019-04-29T02:09:50.372Z,8.83
2019-04-29T02:12:18.777Z,10.90
2019-04-29T02:14:47.166Z,9.13
2019-04-29T02:17:15.566Z,8.50
2019-04-29T02:19:43.975Z,9.57
2019-04-29T02:22:16.801Z,9.53
2019-04-29T02:24:55.243Z,8.63
2019-04-29T02:27:23.643Z,8.47
2019-04-29T02:29:52.119Z,9.67
2019-04-29T02:32:20.527Z,10.20
2019-04-29T02:34:48.920Z,9.20
2019-04-29T02:37:18.975Z,8.23
2019-04-29T02:39:57.855Z,7.73
2019-04-29T02:42:45.780Z,9.03
2019-04-29T02:45:22.057Z,7.30
2019-04-29T02:47:56.699Z,9.20
2019-04-29T02:50:25.155Z,8.60
2019-04-29T02:52:53.549Z,11.13
2019-04-29T02:55:23.621Z,9.10
2019-04-29T02:57:56.172Z,9.57
2019-04-29T03:00:32.000Z,10.83
2019-04-29T03:03:10.700Z,10.67
2019-04-29T03:05:43.838Z,10.10
2019-04-29T03:08:12.242Z,9.80
2019-04-29T03:10:40.647Z,10.33
2019-04-29T03:13:09.212Z,11.67
2019-04-29T03:15:41.010Z,12.20
2019-04-29T03:18:09.478Z,10.83
2019-04-29T03:20:39.632Z,14.20
2019-04-29T03:23:09.679Z,11.03
2019-04-29T03:25:38.134Z,9.03
2019-04-29T03:28:06.682Z,8.90
2019-04-29T03:30:35.094Z,10.07
2019-04-29T03:33:03.478Z,9.27
2019-04-29T03:35:31.896Z,8.90
2019-04-29T03:38:00.292Z,10.20
2019-04-29T03:40:28.685Z,8.93
2019-04-29T03:42:57.088Z,10.50
2019-04-29T03:45:25.480Z,11.30
2019-04-29T03:47:53.887Z,10.50
2019-04-29T03:50:22.314Z,10.77
2019-04-29T03:52:50.698Z,9.40
2019-04-29T03:55:37.602Z,11.30
2019-04-29T03:57:49.222Z,9.63
2019-04-29T04:00:18.744Z,9.37
2019-04-29T04:03:04.092Z,9.20
2019-04-29T04:05:37.123Z,11.90
2019-04-29T04:08:15.852Z,11.00
2019-04-29T04:10:44.259Z,11.77
2019-04-29T04:13:12.650Z,10.17
2019-04-29T04:15:41.391Z,9.87
2019-04-29T04:18:14.155Z,13.77
2019-04-29T04:20:42.561Z,11.10
2019-04-29T04:23:10.960Z,13.40
2019-04-29T04:25:39.357Z,9.17
2019-04-29T04:28:07.764Z,12.80
2019-04-29T04:30:36.179Z,10.73
2019-04-29T04:33:04.584Z,12.97
2019-04-29T04:35:32.978Z,15.73
2019-04-29T04:38:01.384Z,12.33
2019-04-29T04:40:46.331Z,15.23
2019-04-29T04:43:14.736Z,14.67
2019-04-29T04:45:43.155Z,15.20
2019-04-29T04:48:11.563Z,11.97
2019-04-29T04:50:39.980Z,14.37
2019-04-29T04:53:08.628Z,14.37
2019-04-29T04:55:39.359Z,13.67
2019-04-29T04:58:07.768Z,12.30
2019-04-29T05:00:37.348Z,15.20
2019-04-29T05:03:05.766Z,11.37
2019-04-29T05:05:34.168Z,12.03
2019-04-29T05:08:02.579Z,11.43
2019-04-29T05:10:31.084Z,10.40
2019-04-29T05:12:59.503Z,12.93
2019-04-29T05:15:27.919Z,13.93
2019-04-29T05:17:56.341Z,12.90
2019-04-29T05:20:25.444Z,13.47
2019-04-29T05:22:59.814Z,13.40
2019-04-29T05:25:32.272Z,10.90
2019-04-29T05:28:01.159Z,13.87
2019-04-29T05:30:29.737Z,10.90
2019-04-29T05:32:58.168Z,11.97
2019-04-29T05:35:43.110Z,15.40
2019-04-29T05:38:18.626Z,15.20
2019-04-29T05:40:48.702Z,11.87
2019-04-29T05:43:18.819Z,12.77
2019-04-29T05:45:51.724Z,13.30
2019-04-29T05:48:20.907Z,12.70
2019-04-29T05:51:06.152Z,13.77
2019-04-29T05:53:36.180Z,12.37
2019-04-29T05:56:04.654Z,15.80
2019-04-29T05:58:37.636Z,14.77
2019-04-29T06:01:04.826Z,16.67
2019-04-29T06:03:33.631Z,13.30
2019-04-29T06:06:03.434Z,11.97
2019-04-29T06:08:34.585Z,15.57
2019-04-29T06:11:02.022Z,13.67
2019-04-29T06:13:30.438Z,12.40
2019-04-29T06:15:58.842Z,13.87
2019-04-29T06:18:27.250Z,15.93
2019-04-29T06:21:08.239Z,12.97
2019-04-29T06:23:25.883Z,19.03
2019-04-29T06:25:54.429Z,16.17
2019-04-29T06:28:26.842Z,13.27
2019-04-29T06:30:53.090Z,13.63
2019-04-29T06:33:24.338Z,14.10
2019-04-29T06:35:51.615Z,13.53
2019-04-29T06:38:20.011Z,11.17
2019-04-29T06:40:48.412Z,16.90
2019-04-29T06:43:17.118Z,12.40
2019-04-29T06:45:45.698Z,12.30
2019-04-29T06:48:14.098Z,12.67
2019-04-29T06:50:42.507Z,9.80
2019-04-29T06:53:10.899Z,13.67
2019-04-29T06:55:39.299Z,12.57
2019-04-29T06:58:07.712Z,14.33
2019-04-29T07:00:36.118Z,10.83
2019-04-29T07:03:04.534Z,14.13
2019-04-29T07:05:32.942Z,14.87
2019-04-29T07:08:01.354Z,14.33
2019-04-29T07:10:29.754Z,15.90
2019-04-29T07:12:58.190Z,15.87
2019-04-29T07:15:26.594Z,13.73
2019-04-29T07:17:55.000Z,14.60
2019-04-29T07:20:23.410Z,52.33
2019-04-29T07:22:51.814Z,20.80
2019-04-29T07:25:20.223Z,18.20
2019-04-29T07:27:48.646Z,18.63
2019-04-29T07:30:17.363Z,18.57
2019-04-29T07:32:46.966Z,20.20
2019-04-29T07:35:15.970Z,21.97
2019-04-29T07:37:44.382Z,17.30
2019-04-29T07:40:13.327Z,17.53
2019-04-29T07:42:41.649Z,18.97
2019-04-29T07:45:11.763Z,21.47
2019-04-29T07:47:41.243Z,17.13
2019-04-29T07:50:09.938Z,21.30
2019-04-29T07:52:38.394Z,20.70
2019-04-29T07:55:07.371Z,18.77
2019-04-29T07:57:35.793Z,19.20
2019-04-29T08:00:08.574Z,18.37
2019-04-29T08:02:38.074Z,21.17
2019-04-29T08:05:07.522Z,18.97
2019-04-29T08:07:37.575Z,17.23
2019-04-29T08:10:22.830Z,19.30
2019-04-29T08:12:40.210Z,19.60
2019-04-29T08:15:09.444Z,18.67
2019-04-29T08:17:38.180Z,17.33
2019-04-29T08:20:06.947Z,18.70
2019-04-29T08:22:35.353Z,17.73
2019-04-29T08:25:07.927Z,19.97
2019-04-29T08:27:40.585Z,18.40
2019-04-29T08:30:11.218Z,17.13
2019-04-29T08:32:39.427Z,19.30
2019-04-29T08:35:08.156Z,17.90
2019-04-29T08:37:36.631Z,16.23
2019-04-29T08:40:16.050Z,16.83
2019-04-29T08:42:41.434Z,18.60
2019-04-29T08:45:28.526Z,16.17
2019-04-29T08:47:57.811Z,15.90
2019-04-29T08:50:26.218Z,15.80
2019-04-29T08:52:54.623Z,15.73
2019-04-29T08:55:26.520Z,15.73
2019-04-29T08:57:53.181Z,16.97
2019-04-29T09:00:21.824Z,15.63
2019-04-29T09:02:50.234Z,16.80
2019-04-29T09:05:18.712Z,16.10
2019-04-29T09:07:47.119Z,17.80
2019-04-29T09:10:15.857Z,15.73
2019-04-29T09:12:44.271Z,16.30
2019-04-29T09:15:13.220Z,15.53
2019-04-29T09:17:41.624Z,15.97
2019-04-29T09:20:10.557Z,15.60
2019-04-29T09:22:40.262Z,12.03
2019-04-29T09:25:26.368Z,14.17
2019-04-29T09:27:56.362Z,10.57
2019-04-29T09:30:24.474Z,10.37
2019-04-29T09:32:52.962Z,10.37
2019-04-29T09:35:21.372Z,11.40
2019-04-29T09:37:53.738Z,10.63
2019-04-29T09:40:21.611Z,11.50
2019-04-29T09:42:51.869Z,11.40
2019-04-29T09:45:31.006Z,11.50
2019-04-29T09:47:59.406Z,11.07
2019-04-29T09:50:28.572Z,11.40
2019-04-29T09:52:57.467Z,12.40
2019-04-29T09:55:25.947Z,11.80
2019-04-29T09:57:54.343Z,10.60
2019-04-29T10:00:36.312Z,11.20
2019-04-29T10:03:05.467Z,11.37
2019-04-29T10:05:38.530Z,9.87
2019-04-29T10:08:06.998Z,9.30
2019-04-29T10:10:37.311Z,9.53
2019-04-29T10:13:05.863Z,8.47
2019-04-29T10:15:38.887Z,8.53
2019-04-29T10:18:29.944Z,9.17
2019-04-29T10:21:01.372Z,9.63
2019-04-29T10:23:29.778Z,10.00
2019-04-29T10:25:58.263Z,10.77
2019-04-29T10:28:26.665Z,10.10
2019-04-29T10:30:55.436Z,9.37
2019-04-29T10:33:24.474Z,9.80
2019-04-29T10:35:52.954Z,9.40
2019-04-29T10:38:21.356Z,8.47
2019-04-29T10:41:00.671Z,12.53
2019-04-29T10:43:43.719Z,8.87
2019-04-29T10:46:29.739Z,8.00
2019-04-29T10:49:05.720Z,8.47
2019-04-29T10:51:34.202Z,7.50
2019-04-29T10:54:02.607Z,7.33
2019-04-29T10:56:31.011Z,7.80
2019-04-29T10:58:59.501Z,8.17
2019-04-29T11:01:40.906Z,7.63
2019-04-29T11:04:09.317Z,7.70
2019-04-29T11:06:37.714Z,7.57
2019-04-29T11:09:14.514Z,7.07
2019-04-29T11:11:44.130Z,8.30
2019-04-29T11:14:12.523Z,7.67
2019-04-29T11:16:46.634Z,7.47
2019-04-29T11:19:11.206Z,7.00
2019-04-29T11:21:39.602Z,7.10
2019-04-29T11:24:15.730Z,7.33
2019-04-29T11:26:48.562Z,7.50
2019-04-29T11:29:16.962Z,6.97
2019-04-29T11:31:48.976Z,7.80
2019-04-29T11:34:18.375Z,7.87
2019-04-29T11:36:46.774Z,7.33
2019-04-29T11:39:16.026Z,7.53
2019-04-29T11:41:44.738Z,7.77
2019-04-29T11:44:13.127Z,7.77
2019-04-29T11:46:44.622Z,7.37
2019-04-29T11:49:13.235Z,7.47
2019-04-29T11:52:07.806Z,8.03
2019-04-29T11:54:17.960Z,7.90
2019-04-29T11:56:44.035Z,7.80
2019-04-29T11:59:14.225Z,7.27
2019-04-29T12:01:50.896Z,7.67
2019-04-29T12:04:33.511Z,7.77
2019-04-29T12:07:02.634Z,9.47
2019-04-29T12:09:32.214Z,7.03
2019-04-29T12:12:00.689Z,6.97
2019-04-29T12:14:45.863Z,6.67
2019-04-29T12:17:31.897Z,7.13
2019-04-29T12:20:04.888Z,7.20
2019-04-29T12:22:47.159Z,7.20
2019-04-29T12:25:06.291Z,7.17
2019-04-29T12:27:34.783Z,6.57
2019-04-29T12:30:07.927Z,6.63
2019-04-29T12:32:43.868Z,6.50
2019-04-29T12:35:23.445Z,6.27
2019-04-29T12:38:06.726Z,5.80
2019-04-29T12:40:55.052Z,6.37
2019-04-29T12:43:33.887Z,5.93
2019-04-29T12:46:12.664Z,5.97
2019-04-29T12:48:41.102Z,6.00
2019-04-29T12:51:09.571Z,5.97
2019-04-29T12:53:37.996Z,6.30
2019-04-29T12:56:07.263Z,5.30
2019-04-29T12:58:36.582Z,6.20
2019-04-29T13:01:15.719Z,5.37
2019-04-29T13:04:03.850Z,5.47
2019-04-29T13:06:50.046Z,5.57
2019-04-29T13:09:29.337Z,4.83
2019-04-29T13:12:17.403Z,4.97
2019-04-29T13:14:33.144Z,4.60
2019-04-29T13:17:16.417Z,4.40
2019-04-29T13:20:02.494Z,5.30
2019-04-29T13:22:31.643Z,4.30
2019-04-29T13:25:00.047Z,4.53
2019-04-29T13:27:28.450Z,4.33
2019-04-29T13:29:56.862Z,4.30
2019-04-29T13:32:29.281Z,4.53
2019-04-29T13:35:00.261Z,4.20
2019-04-29T13:37:27.163Z,4.83
2019-04-29T13:39:55.862Z,5.90
2019-04-29T13:42:24.361Z,4.43
2019-04-29T13:45:06.074Z,5.03
2019-04-29T13:47:28.804Z,4.80
2019-04-29T13:50:17.235Z,4.40
2019-04-29T13:52:32.433Z,6.17
2019-04-29T13:55:17.328Z,5.27
2019-04-29T13:57:30.958Z,4.50
2019-04-29T14:00:12.794Z,4.33
2019-04-29T14:02:42.970Z,5.03
2019-04-29T14:05:13.142Z,4.87
2019-04-29T14:07:41.554Z,4.37
2019-04-29T14:10:14.950Z,4.07
2019-04-29T14:12:48.480Z,3.80
2019-04-29T14:15:12.058Z,3.87
2019-04-29T14:17:40.478Z,4.20
2019-04-29T14:20:10.597Z,6.00
2019-04-29T14:22:39.070Z,5.97
2019-04-29T14:25:07.755Z,4.10
2019-04-29T14:27:36.155Z,3.97
2019-04-29T14:30:11.803Z,3.63
2019-04-29T14:32:42.390Z,3.10
2019-04-29T14:35:15.058Z,3.60
2019-04-29T14:37:54.363Z,4.03
2019-04-29T14:40:13.822Z,3.37
2019-04-29T14:43:02.895Z,3.53
2019-04-29T14:45:31.692Z,3.97
2019-04-29T14:48:13.593Z,5.07
2019-04-29T14:50:43.670Z,5.40
2019-04-29T14:53:12.070Z,3.60
2019-04-29T14:55:40.471Z,7.60
2019-04-29T14:58:08.879Z,4.47
2019-04-29T15:00:42.010Z,3.80
2019-04-29T15:03:10.465Z,4.27
2019-04-29T15:05:38.936Z,4.50
2019-04-29T15:08:07.357Z,4.17
2019-04-29T15:10:37.205Z,4.30
2019-04-29T15:13:20.491Z,4.40
2019-04-29T15:16:04.822Z,3.60
2019-04-29T15:18:47.746Z,5.33
2019-04-29T15:21:13.906Z,4.90
2019-04-29T15:23:42.306Z,5.13
2019-04-29T15:26:10.706Z,8.13
2019-04-29T15:28:51.199Z,5.63
2019-04-29T15:31:21.039Z,6.33
2019-04-29T15:33:49.680Z,6.00
2019-04-29T15:36:18.257Z,6.70
2019-04-29T15:38:47.220Z,5.53
2019-04-29T15:41:16.896Z,6.53
2019-04-29T15:43:47.943Z,6.17
2019-04-29T15:46:15.411Z,6.60
2019-04-29T15:48:43.888Z,5.83
2019-04-29T15:51:13.987Z,6.37
2019-04-29T15:53:42.423Z,6.50
2019-04-29T15:56:27.784Z,7.00
2019-04-29T15:58:41.129Z,8.57
2019-04-29T16:01:14.848Z,7.40
2019-04-29T16:03:40.000Z,8.00
2019-04-29T16:06:21.251Z,8.07
2019-04-29T16:08:59.010Z,9.40
2019-04-29T16:11:44.430Z,10.70
2019-04-29T16:14:14.494Z,10.77
2019-04-29T16:16:42.918Z,7.83
2019-04-29T16:19:11.394Z,8.70
2019-04-29T16:21:41.815Z,9.03
2019-04-29T16:24:25.977Z,8.30
2019-04-29T16:26:40.042Z,8.87
2019-04-29T16:29:13.003Z,8.10
2019-04-29T16:31:38.579Z,9.80
2019-04-29T16:34:07.047Z,9.40
2019-04-29T16:36:35.542Z,10.50
2019-04-29T16:39:05.780Z,9.67
2019-04-29T16:41:38.663Z,9.90
2019-04-29T16:44:34.119Z,10.10
2019-04-29T16:46:42.137Z,10.40
2019-04-29T16:49:10.783Z,10.10
2019-04-29T16:51:39.350Z,10.33
2019-04-29T16:54:12.834Z,10.90
2019-04-29T16:56:37.878Z,10.60
2019-04-29T16:59:09.070Z,9.87
2019-04-29T17:01:36.555Z,11.10
2019-04-29T17:04:05.666Z,10.80
2019-04-29T17:06:35.833Z,10.77
2019-04-29T17:09:07.886Z,10.63
2019-04-29T17:11:37.995Z,12.63
2019-04-29T17:14:10.082Z,12.07
2019-04-29T17:16:36.682Z,11.53
2019-04-29T17:19:05.379Z,11.57
2019-04-29T17:21:33.794Z,11.77
2019-04-29T17:24:02.435Z,11.50
2019-04-29T17:26:32.870Z,11.47
2019-04-29T17:31:59.702Z,11.87
2019-04-29T17:35:14.860Z,12.23
2019-04-29T17:35:16.216Z,11.07
2019-04-29T17:36:58.555Z,11.80
2019-04-29T17:39:27.630Z,12.33
2019-04-29T17:41:56.050Z,13.87
2019-04-29T17:44:42.114Z,14.60
2019-04-29T17:47:27.108Z,15.00
2019-04-29T17:50:06.665Z,14.77
2019-04-29T17:52:35.998Z,15.63
2019-04-29T17:55:07.886Z,15.27
2019-04-29T17:57:37.938Z,15.50
2019-04-29T18:00:19.431Z,15.13
2019-04-29T18:02:57.399Z,15.73
2019-04-29T18:05:34.337Z,17.53
2019-04-29T18:08:17.154Z,16.10
2019-04-29T18:10:47.282Z,15.53
2019-04-29T18:13:18.767Z,15.63
2019-04-29T18:16:00.017Z,15.63
2019-04-29T18:18:20.185Z,14.37
2019-04-29T18:20:50.526Z,16.37
2019-04-29T18:23:20.566Z,15.03
2019-04-29T18:25:54.846Z,16.03
2019-04-29T18:28:23.578Z,16.33
2019-04-29T18:30:54.468Z,17.10
2019-04-29T18:33:23.107Z,16.37
2019-04-29T18:36:01.261Z,15.67
2019-04-29T18:38:22.113Z,15.53
2019-04-29T18:40:50.538Z,16.13
2019-04-29T18:43:19.171Z,17.13
2019-04-29T18:45:56.225Z,18.83
2019-04-29T18:48:21.536Z,17.33
2019-04-29T18:53:27.244Z,17.30
2019-04-29T18:55:55.652Z,18.03
2019-04-29T18:58:25.009Z,15.97
2019-04-29T19:00:56.237Z,17.27
2019-04-29T19:03:29.713Z,17.87
2019-04-29T19:05:57.586Z,16.20
2019-04-29T19:08:28.603Z,16.37
2019-04-29T19:10:56.129Z,16.83
2019-04-29T19:13:26.051Z,17.37
2019-04-29T19:16:02.881Z,16.33
2019-04-29T19:18:25.488Z,15.93
2019-04-29T19:20:54.809Z,16.40
2019-04-29T19:23:27.944Z,15.50
2019-04-29T19:25:54.337Z,15.97
2019-04-29T19:28:30.031Z,15.13
2019-04-29T19:30:56.136Z,16.63
2019-04-29T19:33:23.013Z,16.43
2019-04-29T19:35:51.423Z,15.60
2019-04-29T19:38:19.886Z,15.63
2019-04-29T19:40:48.270Z,15.33
2019-04-29T19:43:18.916Z,15.87
2019-04-29T19:45:48.990Z,14.93
2019-04-29T19:48:16.955Z,14.63
2019-04-29T19:50:49.524Z,15.67
2019-04-29T19:53:16.751Z,16.00
2019-04-29T19:55:45.730Z,15.50
2019-04-29T19:58:14.575Z,16.27
2019-04-29T20:00:43.955Z,16.23
2019-04-29T20:03:22.817Z,16.87
2019-04-29T20:05:46.390Z,16.37
2019-04-29T20:08:37.559Z,17.10
2019-04-29T20:10:50.479Z,17.37
2019-04-29T20:13:15.831Z,16.80
2019-04-29T20:15:49.022Z,16.90
2019-04-29T20:18:33.777Z,16.50
2019-04-29T20:21:08.810Z,16.37
2019-04-29T20:23:36.993Z,15.97
2019-04-29T20:26:13.931Z,17.07
2019-04-29T20:28:32.922Z,16.87
2019-04-29T20:31:15.436Z,16.67
2019-04-29T20:33:31.674Z,18.13
2019-04-29T20:36:02.401Z,18.33
2019-04-29T20:38:34.987Z,18.20
2019-04-29T20:41:00.887Z,17.83
2019-04-29T20:43:29.827Z,17.43
2019-04-29T20:46:02.195Z,17.23
2019-04-29T20:48:31.340Z,18.17
2019-04-29T20:51:05.129Z,18.20
2019-04-29T20:53:31.017Z,17.83
2019-04-29T20:56:10.405Z,18.83
2019-04-29T20:58:32.852Z,19.10
2019-04-29T21:01:03.076Z,17.77
2019-04-29T21:03:32.467Z,18.20
2019-04-29T21:06:03.132Z,18.87
2019-04-29T21:08:31.170Z,18.30
2019-04-29T21:11:01.210Z,18.10
2019-04-29T21:13:31.260Z,18.77
2019-04-29T21:16:05.265Z,17.73
2019-04-29T21:18:35.723Z,17.60
2019-04-29T21:21:07.526Z,19.80
2019-04-29T21:23:35.740Z,18.17
2019-04-29T21:26:05.403Z,17.93
2019-04-29T21:28:38.089Z,18.73
2019-04-29T21:31:05.246Z,18.67
2019-04-29T21:33:35.375Z,18.87
2019-04-29T21:36:08.002Z,19.43
2019-04-29T21:39:01.715Z,18.70
2019-04-29T21:41:45.777Z,20.87
2019-04-29T21:44:13.946Z,19.53
2019-04-29T21:46:42.366Z,18.63
2019-04-29T21:49:11.601Z,18.50
2019-04-29T21:51:41.797Z,19.60
2019-04-29T21:54:14.192Z,19.07
2019-04-29T21:56:46.521Z,19.70
2019-04-29T21:59:12.360Z,19.20
2019-04-29T22:01:40.941Z,20.33
2019-04-29T22:04:09.347Z,21.03
2019-04-29T22:06:37.751Z,19.90
2019-04-29T22:09:08.066Z,19.13
2019-04-29T22:11:43.064Z,22.37
2019-04-29T22:14:09.896Z,20.90
2019-04-29T22:16:36.906Z,22.27
2019-04-29T22:19:05.529Z,20.93
2019-04-29T22:21:35.882Z,20.87
2019-04-29T22:24:06.180Z,23.77
2019-04-29T22:26:35.128Z,20.70
2019-04-29T22:29:03.669Z,20.97
2019-04-29T22:31:33.781Z,18.97
2019-04-29T22:34:02.198Z,21.70
2019-04-29T22:36:30.608Z,22.17
2019-04-29T22:38:59.017Z,22.00
2019-04-29T22:41:29.070Z,20.83
2019-04-29T22:43:59.114Z,20.00
2019-04-29T22:46:27.518Z,21.60
2019-04-29T22:48:55.926Z,21.73
2019-04-29T22:51:25.465Z,20.47
2019-04-29T22:53:55.686Z,24.00
2019-04-29T22:56:27.554Z,23.77
2019-04-29T22:58:55.878Z,21.87
2019-04-29T23:01:25.923Z,23.43
2019-04-29T23:03:55.400Z,24.30
2019-04-29T23:06:25.889Z,22.57
2019-04-29T23:08:55.979Z,26.30
2019-04-29T23:11:24.300Z,25.30
2019-04-29T23:13:52.702Z,22.60
2019-04-29T23:16:21.175Z,24.80
2019-04-29T23:18:49.581Z,26.60
2019-04-29T23:21:19.626Z,26.33
2019-04-29T23:23:49.676Z,23.77
2019-04-29T23:26:18.146Z,25.47
2019-04-29T23:28:46.559Z,33.00
2019-04-29T23:31:14.958Z,26.90
2019-04-29T23:33:43.551Z,28.47
2019-04-29T23:36:14.262Z,27.70
2019-04-29T23:38:42.852Z,28.27
2019-04-29T23:41:12.299Z,30.47
2019-04-29T23:43:40.719Z,31.93
2019-04-29T23:46:09.133Z,30.47
2019-04-29T23:48:39.335Z,31.30
2019-04-29T23:51:07.682Z,33.53
2019-04-29T23:53:36.167Z,30.43
2019-04-29T23:56:09.538Z,32.63
2019-04-29T23:58:37.432Z,32.60
